Weather at Humberto Delgado Airport (Lisbon Portela Airport)

Public forecast

Using degrees Celsius for public forecast. Weather courtesy of forecast.io.

Current aviation weather report (METAR) for Humberto Delgado Airport (Lisbon Portela Airport)

Retrieved 2020/11/28 19:30 UTC (0 seconds ago):

LPPT 281930Z 24004KT 9999 FEW036 13/10 Q1006

Aviation forecast (TAF) for Humberto Delgado Airport (Lisbon Portela Airport)

Retrieved 2020/11/28 18:18 UTC (52 minutes ago):

TAF LPPT 281700Z 2818/2924 23007KT 9999 SCT020 TEMPO 2818/2920 8000 SHRA SCT006 FEW020CB BKN030 BECMG 2819/2822 VRB02KT BECMG 2906/2908 09007KT PROB30 TEMPO 2906/2920 3000 TSRA SCT018CB